Terminal Aerodrome Forecast
Issued by NWS

Home | Current Version | Previous Version | Text Only | Print | Product List | Glossary On
Versions: 1 2 3 4 5 6 7 8 9 10 11 12 13 14 15 16 17 18 19 20 21 22 23 24 25 26 27 28 29 30 31 32 33 34 35 36 37 38 39 40 41 42 43 44
000
FTUS45 KSLC 260040 AAA
TAFENV
TAF AMD
KENV 260040Z 2601/2624 12007KT P6SM VCTS SCT070CB BKN100
      TEMPO 2601/2602 30011G20KT P6SM -TSRA BKN070CB OVC100
     FM260300 02006KT P6SM BKN080 BKN120
     FM261400 11006KT P6SM VCSH BKN060 BKN100
     FM262000 06005KT P6SM -SHRA BKN050 BKN080
      AMD LTD TO CLD VIS AND WIND=

USA.gov is the U.S. government's official web portal to all federal, state and local government web resources and services.